Time,TemperatureF,DewpointF,PressureIn,WindDirection,WindDirectionDegrees,WindSpeedMPH,WindSpeedGustMPH,Humidity,HourlyPrecipIn,Conditions,Clouds,dailyrainin,SolarRadiationWatts/m^2,SoftwareType,DateUTC
2013-04-05 00:12:00,48.0,41.0,-100.00,SW,215,2.0,9.0,76,-99.99,,,0.00,0.000000,,2013-04-05 07:12:00,
2013-04-05 00:42:00,48.0,41.0,-100.00,SW,215,2.0,9.0,76,-99.99,,,0.00,0.000000,,2013-04-05 07:42:00,
2013-04-05 00:52:00,48.0,41.0,-100.00,SW,215,2.0,9.0,76,-99.99,,,0.00,0.000000,,2013-04-05 07:52:00,
2013-04-05 01:02:00,48.0,41.0,-100.00,SW,215,2.0,9.0,76,-99.99,,,0.00,0.000000,,2013-04-05 08:02:00,
2013-04-05 01:12:00,49.0,43.0,-100.00,WSW,242,0.0,6.0,81,0.00,,,0.00,0.000000,,2013-04-05 08:12:00,
2013-04-05 01:43:00,49.0,43.0,-100.00,WSW,242,0.0,6.0,81,0.00,,,0.00,0.000000,,2013-04-05 08:43:00,
2013-04-05 01:52:00,49.0,43.0,-100.00,WSW,242,0.0,6.0,81,0.00,,,0.00,0.000000,,2013-04-05 08:52:00,
2013-04-05 02:02:00,49.0,43.0,-100.00,WSW,242,0.0,6.0,81,0.00,,,0.00,0.000000,,2013-04-05 09:02:00,
2013-04-05 02:12:00,46.0,43.0,-100.00,WSW,241,2.0,7.0,89,0.00,,,0.00,0.000000,,2013-04-05 09:12:00,
2013-04-05 02:43:00,46.0,43.0,-100.00,WSW,241,2.0,7.0,89,0.00,,,0.00,0.000000,,2013-04-05 09:43:00,
2013-04-05 02:53:00,46.0,43.0,-100.00,WSW,241,2.0,7.0,89,0.00,,,0.00,0.000000,,2013-04-05 09:53:00,
2013-04-05 03:02:00,46.0,43.0,-100.00,WSW,241,2.0,7.0,89,0.00,,,0.00,0.000000,,2013-04-05 10:02:00,
2013-04-05 03:12:00,47.0,45.0,-100.00,East,79,0.0,4.0,93,0.00,,,0.00,0.000000,,2013-04-05 10:12:00,
2013-04-05 03:33:00,47.0,45.0,-100.00,East,79,0.0,4.0,93,0.00,,,0.00,0.000000,,2013-04-05 10:33:00,
2013-04-05 03:43:00,47.0,45.0,-100.00,East,79,0.0,4.0,93,0.00,,,0.00,0.000000,,2013-04-05 10:43:00,
2013-04-05 03:53:00,47.0,45.0,-100.00,East,79,0.0,4.0,93,0.00,,,0.00,0.000000,,2013-04-05 10:53:00,
2013-04-05 04:02:00,47.0,45.0,-100.00,East,79,0.0,4.0,93,0.00,,,0.00,0.000000,,2013-04-05 11:02:00,
2013-04-05 04:33:00,46.0,44.0,-100.00,WSW,250,0.0,4.0,93,0.00,,,0.00,0.000000,,2013-04-05 11:33:00,
2013-04-05 04:42:00,46.0,44.0,-100.00,WSW,250,0.0,4.0,93,0.00,,,0.00,0.000000,,2013-04-05 11:42:00,
2013-04-05 04:52:00,46.0,44.0,-100.00,WSW,250,0.0,4.0,93,0.00,,,0.00,0.000000,,2013-04-05 11:52:00,
2013-04-05 05:02:00,46.0,44.0,-100.00,WSW,250,0.0,4.0,93,0.00,,,0.00,0.000000,,2013-04-05 12:02:00,
2013-04-05 05:11:00,46.0,44.0,-100.00,WSW,250,0.0,4.0,93,0.00,,,0.00,0.000000,,2013-04-05 12:11:00,
2013-04-05 06:12:00,42.0,40.0,-100.00,SSW,212,0.0,0.0,94,-99.99,,,0.00,0.000000,,2013-04-05 13:12:00,
2013-04-05 06:42:00,42.0,40.0,-100.00,SSW,212,0.0,0.0,94,-99.99,,,0.00,0.000000,,2013-04-05 13:42:00,
2013-04-05 06:52:00,42.0,40.0,-100.00,SSW,212,0.0,0.0,94,-99.99,,,0.00,0.000000,,2013-04-05 13:52:00,
2013-04-05 07:02:00,42.0,40.0,-100.00,SSW,212,0.0,0.0,94,-99.99,,,0.00,0.000000,,2013-04-05 14:02:00,
2013-04-05 07:12:00,42.0,40.0,-100.00,West,267,3.0,0.0,94,0.00,,,0.00,13.000000,,2013-04-05 14:12:00,
2013-04-05 07:43:00,42.0,40.0,-100.00,West,267,3.0,0.0,94,0.00,,,0.00,13.000000,,2013-04-05 14:43:00,
2013-04-05 07:53:00,42.0,40.0,-100.00,West,267,3.0,0.0,94,0.00,,,0.00,13.000000,,2013-04-05 14:53:00,
2013-04-05 08:02:00,42.0,40.0,-100.00,West,267,3.0,0.0,94,0.00,,,0.00,13.000000,,2013-04-05 15:02:00,
2013-04-05 08:12:00,47.0,45.0,-100.00,North,352,0.0,8.0,91,0.00,,,0.00,264.000000,,2013-04-05 15:12:00,
2013-04-05 08:33:00,47.0,45.0,-100.00,North,352,0.0,8.0,91,0.00,,,0.00,264.000000,,2013-04-05 15:33:00,
2013-04-05 08:43:00,47.0,45.0,-100.00,North,352,0.0,8.0,91,0.00,,,0.00,264.000000,,2013-04-05 15:43:00,
2013-04-05 08:53:00,47.0,45.0,-100.00,North,352,0.0,8.0,91,0.00,,,0.00,264.000000,,2013-04-05 15:53:00,
2013-04-05 09:02:00,47.0,45.0,-100.00,North,352,0.0,8.0,91,0.00,,,0.00,264.000000,,2013-04-05 16:02:00,
2013-04-05 09:12:00,55.0,45.0,-100.00,West,270,6.0,6.0,68,0.00,,,0.00,532.000000,,2013-04-05 16:12:00,
2013-04-05 09:33:00,55.0,45.0,-100.00,West,270,6.0,6.0,68,0.00,,,0.00,532.000000,,2013-04-05 16:33:00,
2013-04-05 09:43:00,55.0,45.0,-100.00,West,270,6.0,6.0,68,0.00,,,0.00,532.000000,,2013-04-05 16:43:00,
2013-04-05 09:52:00,55.0,45.0,-100.00,West,270,6.0,6.0,68,0.00,,,0.00,532.000000,,2013-04-05 16:52:00,
2013-04-05 10:02:00,55.0,45.0,-100.00,West,270,6.0,6.0,68,0.00,,,0.00,532.000000,,2013-04-05 17:02:00,
2013-04-05 10:33:00,60.0,43.0,-100.00,West,273,7.0,12.0,54,0.00,,,0.00,777.000000,,2013-04-05 17:33:00,
2013-04-05 10:45:00,60.0,43.0,-100.00,West,273,7.0,12.0,54,0.00,,,0.00,777.000000,,2013-04-05 17:45:00,
2013-04-05 10:52:00,60.0,43.0,-100.00,West,273,7.0,12.0,54,0.00,,,0.00,777.000000,,2013-04-05 17:52:00,
2013-04-05 11:02:00,60.0,43.0,-100.00,West,273,7.0,12.0,54,0.00,,,0.00,777.000000,,2013-04-05 18:02:00,
2013-04-05 11:11:00,60.0,43.0,-100.00,West,273,7.0,12.0,54,0.00,,,0.00,777.000000,,2013-04-05 18:11:00,
2013-04-05 11:12:00,61.0,46.0,-100.00,SW,222,6.0,13.0,57,0.00,,,0.00,968.000000,,2013-04-05 18:12:00,
2013-04-05 11:43:00,61.0,46.0,-100.00,SW,222,6.0,13.0,57,0.00,,,0.00,968.000000,,2013-04-05 18:43:00,
2013-04-05 11:52:00,61.0,46.0,-100.00,SW,222,6.0,13.0,57,0.00,,,0.00,968.000000,,2013-04-05 18:52:00,
2013-04-05 12:02:00,61.0,46.0,-100.00,SW,222,6.0,13.0,57,0.00,,,0.00,968.000000,,2013-04-05 19:02:00,
2013-04-05 12:42:00,62.0,46.0,-100.00,SW,228,5.0,13.0,56,0.00,,,0.00,1208.000000,,2013-04-05 19:42:00,
2013-04-05 12:52:00,62.0,46.0,-100.00,SW,228,5.0,13.0,56,0.00,,,0.00,1208.000000,,2013-04-05 19:52:00,
2013-04-05 13:02:00,62.0,46.0,-100.00,SW,228,5.0,13.0,56,0.00,,,0.00,1208.000000,,2013-04-05 20:02:00,
2013-04-05 13:10:00,62.0,46.0,-100.00,SW,228,5.0,13.0,56,0.00,,,0.00,1208.000000,,2013-04-05 20:10:00,
2013-04-05 13:33:00,66.0,47.0,-100.00,WSW,240,5.0,13.0,51,0.00,,,0.00,1178.000000,,2013-04-05 20:33:00,
2013-04-05 14:12:00,66.0,45.0,-100.00,West,263,7.0,12.0,47,0.00,,,0.00,1139.000000,,2013-04-05 21:12:00,
2013-04-05 14:44:00,66.0,45.0,-100.00,West,263,7.0,12.0,47,0.00,,,0.00,1139.000000,,2013-04-05 21:44:00,
2013-04-05 14:54:00,66.0,45.0,-100.00,West,263,7.0,12.0,47,0.00,,,0.00,1139.000000,,2013-04-05 21:54:00,
2013-04-05 15:02:00,66.0,45.0,-100.00,West,263,7.0,12.0,47,0.00,,,0.00,1139.000000,,2013-04-05 22:02:00,
2013-04-05 15:12:00,67.0,43.0,-100.00,West,264,8.0,16.0,41,0.00,,,0.00,1048.000000,,2013-04-05 22:12:00,
2013-04-05 15:43:00,67.0,43.0,-100.00,West,264,8.0,16.0,41,0.00,,,0.00,1048.000000,,2013-04-05 22:43:00,
2013-04-05 15:53:00,67.0,43.0,-100.00,West,264,8.0,16.0,41,0.00,,,0.00,1048.000000,,2013-04-05 22:53:00,
2013-04-05 16:02:00,67.0,43.0,-100.00,West,264,8.0,16.0,41,0.00,,,0.00,1048.000000,,2013-04-05 23:02:00,
2013-04-05 16:42:00,69.0,47.0,-100.00,West,264,8.0,19.0,45,0.00,,,-99.99,701.000000,,2013-04-05 23:42:00,
2013-04-05 16:52:00,69.0,47.0,-100.00,West,264,8.0,19.0,45,0.00,,,-99.99,701.000000,,2013-04-05 23:52:00,
2013-04-05 18:12:00,59.0,47.0,-100.00,West,262,5.0,18.0,64,-99.99,,,0.00,146.000000,,2013-04-06 01:12:00,
2013-04-05 18:33:00,59.0,47.0,-100.00,West,262,5.0,18.0,64,-99.99,,,0.00,146.000000,,2013-04-06 01:33:00,
2013-04-05 18:43:00,59.0,47.0,-100.00,West,262,5.0,18.0,64,-99.99,,,0.00,146.000000,,2013-04-06 01:43:00,
2013-04-05 18:53:00,59.0,47.0,-100.00,West,262,5.0,18.0,64,-99.99,,,0.00,146.000000,,2013-04-06 01:53:00,
2013-04-05 19:02:00,59.0,47.0,-100.00,West,262,5.0,18.0,64,-99.99,,,0.00,146.000000,,2013-04-06 02:02:00,
2013-04-05 19:12:00,56.0,49.0,-100.00,WSW,242,1.0,17.0,76,0.00,,,0.00,35.000000,,2013-04-06 02:12:00,
2013-04-05 19:43:00,56.0,49.0,-100.00,WSW,242,1.0,17.0,76,0.00,,,0.00,35.000000,,2013-04-06 02:43:00,
2013-04-05 19:52:00,56.0,49.0,-100.00,WSW,242,1.0,17.0,76,0.00,,,0.00,35.000000,,2013-04-06 02:52:00,
2013-04-05 20:02:00,56.0,49.0,-100.00,WSW,242,1.0,17.0,76,0.00,,,0.00,35.000000,,2013-04-06 03:02:00,
2013-04-05 20:12:00,50.0,46.0,-100.00,West,275,3.0,11.0,87,0.00,,,0.00,0.000000,,2013-04-06 03:12:00,
2013-04-05 20:43:00,50.0,46.0,-100.00,West,275,3.0,11.0,87,0.00,,,0.00,0.000000,,2013-04-06 03:43:00,
2013-04-05 20:53:00,50.0,46.0,-100.00,West,275,3.0,11.0,87,0.00,,,0.00,0.000000,,2013-04-06 03:53:00,
2013-04-05 21:03:00,50.0,46.0,-100.00,West,275,3.0,11.0,87,0.00,,,0.00,0.000000,,2013-04-06 04:03:00,
2013-04-05 21:43:00,47.0,45.0,-100.00,WSW,239,0.0,10.0,93,0.00,,,0.00,0.000000,,2013-04-06 04:43:00,
2013-04-05 21:53:00,47.0,45.0,-100.00,WSW,239,0.0,10.0,93,0.00,,,0.00,0.000000,,2013-04-06 04:53:00,
2013-04-05 22:02:00,47.0,45.0,-100.00,WSW,239,0.0,10.0,93,0.00,,,0.00,0.000000,,2013-04-06 05:02:00,
2013-04-05 22:12:00,48.0,47.0,-100.00,NNW,331,0.0,4.0,95,0.00,,,0.00,0.000000,,2013-04-06 05:12:00,
2013-04-05 22:43:00,48.0,47.0,-100.00,NNW,331,0.0,4.0,95,0.00,,,0.00,0.000000,,2013-04-06 05:43:00,
2013-04-05 22:52:00,48.0,47.0,-100.00,NNW,331,0.0,4.0,95,0.00,,,0.00,0.000000,,2013-04-06 05:52:00,
2013-04-05 23:02:00,48.0,47.0,-100.00,NNW,331,0.0,4.0,95,0.00,,,0.00,0.000000,,2013-04-06 06:02:00,
2013-04-05 23:12:00,45.0,44.0,-100.00,NNE,33,0.0,4.0,95,0.00,,,-99.99,0.000000,,2013-04-06 06:12:00,
2013-04-05 23:43:00,45.0,44.0,-100.00,NNE,33,0.0,4.0,95,0.00,,,-99.99,0.000000,,2013-04-06 06:43:00,
2013-04-05 23:52:00,45.0,44.0,-100.00,NNE,33,0.0,4.0,95,0.00,,,-99.99,0.000000,,2013-04-06 06:52:00,